Time;durP1;ratioP1;P1;durP2;ratioP2;P2;SDS_P1;SDS_P2;PMS_P1;PMS_P2;Temp;Humidity;BMP_temperature;BMP_pressure;BME280_temperature;BME280_humidity;BME280_pressure;Samples;Min_cycle;Max_cycle;Signal;HPM_P1;HPM_P2
2023/07/16 00:00:39;;;;;;;17.60;8.30;;;;;;;21.37;61.37;100704.99;126987;1086;104143;-78
2023/07/16 00:03:28;;;;;;;16.77;8.60;;;;;;;21.34;61.31;100702.34;126922;1086;119821;-77
2023/07/16 00:05:56;;;;;;;18.23;8.43;;;;;;;21.31;61.83;100705.02;126922;1086;102901;-78
2023/07/16 00:08:25;;;;;;;19.37;9.07;;;;;;;21.27;61.80;100701.50;127065;1086;102111;-78
2023/07/16 00:10:53;;;;;;;17.20;8.80;;;;;;;21.23;62.71;100704.19;126870;1086;102079;-78
2023/07/16 00:13:22;;;;;;;19.97;8.93;;;;;;;21.13;62.10;100712.23;126900;1085;102028;-78
2023/07/16 00:15:50;;;;;;;20.90;9.27;;;;;;;21.05;62.96;100716.72;126964;1086;104197;-79
2023/07/16 00:18:19;;;;;;;18.50;9.53;;;;;;;20.94;62.95;100715.85;126904;1086;102209;-80
2023/07/16 00:20:47;;;;;;;20.37;8.37;;;;;;;20.85;62.96;100713.21;126956;1085;102070;-77
2023/07/16 00:23:16;;;;;;;20.57;9.60;;;;;;;20.82;63.18;100714.13;126849;1086;102669;-78
2023/07/16 00:25:44;;;;;;;17.80;9.20;;;;;;;20.82;63.54;100706.13;126986;1086;104203;-78
2023/07/16 00:28:13;;;;;;;18.07;8.70;;;;;;;20.85;63.42;100706.12;127015;1086;102098;-78
2023/07/16 00:30:42;;;;;;;18.33;9.13;;;;;;;20.85;64.63;100707.87;126899;1086;104392;-79
2023/07/16 00:33:10;;;;;;;19.23;9.30;;;;;;;20.83;64.02;100708.80;127148;1086;101971;-78
2023/07/16 00:35:39;;;;;;;21.07;8.63;;;;;;;20.80;64.74;100703.47;127922;1086;102015;-78
2023/07/16 00:38:07;;;;;;;23.90;9.47;;;;;;;20.80;64.07;100711.47;127795;1085;101893;-79
2023/07/16 00:40:36;;;;;;;18.47;9.10;;;;;;;20.78;64.36;100705.23;127886;1086;101997;-79
2023/07/16 00:43:04;;;;;;;17.37;8.87;;;;;;;20.74;64.70;100700.81;127834;1086;101900;-78
2023/07/16 00:45:33;;;;;;;18.30;8.57;;;;;;;20.76;64.49;100696.36;127251;1086;101861;-78
2023/07/16 00:48:02;;;;;;;16.60;8.13;;;;;;;20.77;64.50;100698.14;126911;1086;102038;-78
2023/07/16 00:50:33;;;;;;;18.90;8.53;;;;;;;20.75;65.06;100694.58;126993;1086;101803;-78
2023/07/16 00:53:02;;;;;;;16.00;8.77;;;;;;;20.74;65.48;100695.48;126889;1086;102002;-78
2023/07/16 00:55:31;;;;;;;17.33;8.40;;;;;;;20.72;65.38;100701.70;126878;1086;102294;-78
2023/07/16 00:58:05;;;;;;;19.37;8.80;;;;;;;20.72;65.40;100686.58;126905;1086;104232;-77
2023/07/16 01:00:34;;;;;;;18.50;8.87;;;;;;;20.74;65.26;100692.82;126985;1086;102064;-78
2023/07/16 01:03:04;;;;;;;18.10;8.23;;;;;;;20.75;65.38;100689.23;126918;1086;104203;-77
2023/07/16 01:05:39;;;;;;;18.87;8.73;;;;;;;20.76;65.31;100680.36;126877;1087;102107;-78
2023/07/16 01:08:11;;;;;;;18.13;9.07;;;;;;;20.78;65.29;100689.23;126821;1086;104466;-78
2023/07/16 01:10:41;;;;;;;18.53;8.63;;;;;;;20.72;65.37;100691.92;126937;1086;104152;-79
2023/07/16 01:13:10;;;;;;;18.73;9.50;;;;;;;20.62;66.61;100693.70;126946;1085;104149;-79
2023/07/16 01:15:39;;;;;;;20.07;9.30;;;;;;;20.55;66.88;100688.38;126993;1086;102125;-78
2023/07/16 01:18:09;;;;;;;20.17;8.60;;;;;;;20.50;66.37;100690.18;126951;1086;104184;-79
2023/07/16 01:20:37;;;;;;;19.73;9.43;;;;;;;20.44;66.49;100689.31;126945;1086;104152;-79
2023/07/16 01:23:26;;;;;;;19.53;9.33;;;;;;;20.40;66.30;100699.98;126932;1086;104231;-79
2023/07/16 01:26:09;;;;;;;17.93;8.87;;;;;;;20.37;66.79;100699.98;126951;1086;104191;-79
2023/07/16 01:28:54;;;;;;;20.60;9.70;;;;;;;20.34;67.09;100698.20;127001;1086;104312;-79
2023/07/16 01:31:23;;;;;;;17.73;8.90;;;;;;;20.30;67.51;100707.08;126913;1086;104181;-78
2023/07/16 01:33:52;;;;;;;19.90;9.23;;;;;;;20.28;68.06;100709.73;126867;1085;104168;-78
2023/07/16 01:36:22;;;;;;;19.30;9.40;;;;;;;20.25;67.28;100703.53;126981;1086;104213;-77
2023/07/16 01:38:51;;;;;;;18.33;9.27;;;;;;;20.22;67.83;100706.20;126910;1085;104203;-78
2023/07/16 01:41:20;;;;;;;19.03;9.00;;;;;;;20.20;68.37;100702.66;127009;1086;101834;-79
2023/07/16 01:43:49;;;;;;;19.03;9.30;;;;;;;20.18;67.84;100707.08;126975;1086;102006;-78
2023/07/16 01:46:18;;;;;;;17.93;9.17;;;;;;;20.22;67.77;100703.54;126848;1086;104137;-77
2023/07/16 01:48:47;;;;;;;23.53;9.27;;;;;;;20.27;68.35;100712.41;126792;1086;101958;-77
2023/07/16 01:51:16;;;;;;;19.97;9.00;;;;;;;20.27;68.04;100704.41;126752;1086;104168;-77
2023/07/16 01:53:45;;;;;;;16.87;8.90;;;;;;;20.27;68.08;100705.32;126755;1086;105509;-77
2023/07/16 01:56:13;;;;;;;17.40;9.00;;;;;;;20.29;69.08;100705.32;126874;1086;104156;-77
2023/07/16 01:58:42;;;;;;;17.80;9.07;;;;;;;20.32;68.17;100705.31;126825;1086;104040;-78
2023/07/16 02:01:10;;;;;;;21.23;9.20;;;;;;;20.32;68.73;100710.65;126857;1086;104114;-77
2023/07/16 02:03:39;;;;;;;22.03;9.37;;;;;;;20.29;69.24;100707.98;126822;1086;102382;-77
2023/07/16 02:06:07;;;;;;;19.03;9.57;;;;;;;20.28;69.51;100704.41;126748;1086;104190;-76
2023/07/16 02:08:36;;;;;;;21.10;10.10;;;;;;;20.28;69.60;100704.41;126761;1086;101977;-77
2023/07/16 02:11:05;;;;;;;18.17;9.10;;;;;;;20.31;69.79;100702.66;126768;1085;104046;-77
2023/07/16 02:13:33;;;;;;;16.27;8.60;;;;;;;20.34;68.94;100708.86;126800;1086;102360;-77
2023/07/16 02:16:02;;;;;;;19.80;9.03;;;;;;;20.35;70.01;100713.31;126785;1086;104145;-76
2023/07/16 02:18:31;;;;;;;19.50;9.03;;;;;;;20.32;69.88;100710.65;126793;1086;104303;-76
2023/07/16 02:20:59;;;;;;;16.67;8.80;;;;;;;20.29;69.83;100716.86;126681;1085;104158;-76
2023/07/16 02:23:28;;;;;;;17.07;8.67;;;;;;;20.30;70.20;100717.73;126723;1086;104232;-77
2023/07/16 02:25:56;;;;;;;19.97;9.23;;;;;;;20.29;69.53;100715.98;126792;1086;104228;-76
2023/07/16 02:28:25;;;;;;;21.37;9.83;;;;;;;20.28;69.81;100714.19;126768;1086;104148;-77
2023/07/16 02:30:54;;;;;;;20.60;9.55;;;;;;;20.23;69.75;100716.86;126552;1086;104388;-77
2023/07/16 02:33:23;;;;;;;21.17;10.03;;;;;;;20.22;70.71;100714.20;126763;1086;101899;-77
2023/07/16 02:35:52;;;;;;;21.03;10.10;;;;;;;20.18;71.06;100715.08;126732;1086;104156;-77
2023/07/16 02:38:20;;;;;;;24.10;10.57;;;;;;;20.15;70.18;100710.66;126816;1086;104220;-77
2023/07/16 02:40:50;;;;;;;20.20;9.73;;;;;;;20.13;69.79;100709.74;126803;1086;102008;-77
2023/07/16 02:43:18;;;;;;;19.23;9.20;;;;;;;20.13;71.32;100712.41;126764;1086;104245;-77
2023/07/16 02:45:47;;;;;;;19.27;9.20;;;;;;;20.16;70.08;100709.74;126909;1086;104312;-78
2023/07/16 02:48:16;;;;;;;19.37;9.27;;;;;;;20.19;70.66;100708.87;126940;1086;104213;-77
2023/07/16 02:50:44;;;;;;;19.40;9.73;;;;;;;20.21;70.91;100701.75;126841;1086;101826;-77
2023/07/16 02:53:15;;;;;;;20.67;9.83;;;;;;;20.24;71.45;100707.08;126838;1086;102079;-77
2023/07/16 02:55:46;;;;;;;19.17;9.70;;;;;;;20.27;71.00;100707.98;126822;1086;102095;-77
2023/07/16 02:58:15;;;;;;;18.00;9.23;;;;;;;20.28;70.77;100708.86;126812;1086;104149;-77
2023/07/16 03:00:45;;;;;;;19.33;9.70;;;;;;;20.28;70.94;100715.07;126778;1086;104181;-77
2023/07/16 03:03:14;;;;;;;21.80;9.60;;;;;;;20.31;71.83;100715.98;126859;1086;101905;-77
2023/07/16 03:05:42;;;;;;;20.43;9.60;;;;;;;20.33;71.36;100707.07;126795;1086;102292;-78
2023/07/16 03:08:11;;;;;;;20.13;9.40;;;;;;;20.39;71.32;100714.19;126863;1086;102328;-78
2023/07/16 03:10:39;;;;;;;20.97;9.47;;;;;;;20.44;71.91;100709.72;126803;1086;102101;-77
2023/07/16 03:13:08;;;;;;;18.97;9.33;;;;;;;20.44;71.63;100723.96;126807;1086;104347;-77
2023/07/16 03:15:39;;;;;;;18.27;9.03;;;;;;;20.50;72.18;100717.71;126831;1086;102669;-77
2023/07/16 03:18:09;;;;;;;19.13;9.27;;;;;;;20.55;72.12;100710.58;126878;1086;104194;-77
2023/07/16 03:20:37;;;;;;;20.80;9.10;;;;;;;20.56;72.14;100711.49;126811;1086;102105;-77
2023/07/16 03:23:06;;;;;;;21.13;9.73;;;;;;;20.59;71.39;100708.82;126762;1086;101969;-77
2023/07/16 03:25:35;;;;;;;21.57;9.50;;;;;;;20.63;71.27;100705.23;126746;1086;104188;-77
2023/07/16 03:28:04;;;;;;;21.75;9.60;;;;;;;20.67;71.16;100696.38;126947;1086;104149;-77
2023/07/16 03:30:33;;;;;;;18.90;9.13;;;;;;;20.71;71.41;100708.83;126766;1086;102010;-77
2023/07/16 03:33:01;;;;;;;18.33;9.40;;;;;;;20.75;72.00;100707.91;126763;1086;104280;-77
2023/07/16 03:35:30;;;;;;;19.50;9.47;;;;;;;20.78;71.88;100715.89;126831;1085;102067;-77
2023/07/16 03:37:59;;;;;;;19.23;9.50;;;;;;;20.79;71.52;100712.34;126753;1086;104338;-76
2023/07/16 03:40:28;;;;;;;18.13;9.23;;;;;;;20.83;72.24;100729.22;126707;1086;104242;-77
2023/07/16 03:42:57;;;;;;;18.20;9.27;;;;;;;20.85;71.46;100721.22;126502;1086;102132;-78
2023/07/16 03:45:26;;;;;;;21.03;9.70;;;;;;;20.87;71.68;100711.45;126701;1086;101781;-77
2023/07/16 03:47:54;;;;;;;19.57;9.10;;;;;;;20.89;71.53;100712.32;126468;1086;118445;-78
2023/07/16 03:50:23;;;;;;;19.00;9.53;;;;;;;20.89;72.10;100718.53;126581;1086;104331;-78
2023/07/16 03:52:52;;;;;;;22.87;9.93;;;;;;;20.91;72.43;100714.10;126760;1086;104181;-79
2023/07/16 03:55:21;;;;;;;19.97;9.37;;;;;;;20.94;71.79;100716.76;126675;1086;104155;-78
2023/07/16 03:57:49;;;;;;;23.23;9.67;;;;;;;20.96;71.73;100714.09;127503;1086;102083;-78
2023/07/16 04:00:18;;;;;;;17.67;9.20;;;;;;;20.98;72.22;100722.96;126664;1086;101890;-77
2023/07/16 04:02:49;;;;;;;20.93;9.17;;;;;;;21.03;72.09;100715.82;127717;1085;102267;-77
2023/07/16 04:05:21;;;;;;;19.33;9.40;;;;;;;21.08;72.62;100715.80;126713;1086;104197;-78
2023/07/16 04:07:49;;;;;;;19.13;8.87;;;;;;;21.11;72.08;100716.66;126743;1085;104206;-77
2023/07/16 04:10:18;;;;;;;18.43;9.17;;;;;;;21.16;71.97;100711.31;126810;1086;104268;-78
2023/07/16 04:12:49;;;;;;;19.77;9.00;;;;;;;21.20;71.62;100718.41;126798;1086;101902;-77
2023/07/16 04:15:18;;;;;;;18.53;9.43;;;;;;;21.27;72.23;100722.84;126793;1086;104153;-78
2023/07/16 04:17:47;;;;;;;17.67;9.10;;;;;;;21.32;71.28;100720.16;126785;1086;104159;-78
2023/07/16 04:20:15;;;;;;;17.30;9.00;;;;;;;21.36;71.75;100717.46;126807;1086;104184;-78
2023/07/16 04:22:44;;;;;;;17.07;8.90;;;;;;;21.40;71.59;100722.78;126865;1085;104658;-78
2023/07/16 04:25:13;;;;;;;18.10;8.90;;;;;;;21.42;71.90;100723.66;126794;1086;104225;-78
2023/07/16 04:27:43;;;;;;;21.53;9.33;;;;;;;21.44;71.70;100724.52;126653;1086;104165;-77
2023/07/16 04:30:12;;;;;;;16.70;8.57;;;;;;;21.47;71.56;100721.84;126735;1086;104152;-77
2023/07/16 04:32:41;;;;;;;17.10;8.70;;;;;;;21.50;70.68;100722.76;126643;1086;104199;-77
2023/07/16 04:35:10;;;;;;;20.05;8.70;;;;;;;21.54;71.37;100724.50;126707;1086;104178;-77
2023/07/16 04:37:38;;;;;;;19.20;9.10;;;;;;;21.59;71.62;100728.93;127509;1085;104175;-77
2023/07/16 04:40:09;;;;;;;16.73;8.90;;;;;;;21.65;71.51;100732.44;126648;1086;101947;-78
2023/07/16 04:42:38;;;;;;;17.20;8.43;;;;;;;21.69;71.33;100736.88;126645;1086;101949;-77
2023/07/16 04:45:08;;;;;;;22.30;9.20;;;;;;;21.73;70.93;100741.28;126693;1086;104225;-77
2023/07/16 04:47:39;;;;;;;17.93;8.77;;;;;;;21.80;71.11;100741.24;126648;1085;104258;-76
2023/07/16 04:50:08;;;;;;;17.27;8.23;;;;;;;21.86;71.41;100738.53;126699;1086;101817;-77
2023/07/16 04:52:37;;;;;;;16.17;8.90;;;;;;;21.94;70.87;100743.82;126640;1085;103483;-75
2023/07/16 04:55:08;;;;;;;18.53;8.70;;;;;;;22.01;70.38;100741.09;126585;1086;104201;-77
2023/07/16 04:57:36;;;;;;;19.87;9.33;;;;;;;22.05;70.71;100739.30;126651;1086;104165;-78
2023/07/16 05:00:08;;;;;;;18.50;8.50;;;;;;;22.11;69.88;100741.02;126758;1086;104188;-77
2023/07/16 05:02:36;;;;;;;16.53;7.87;;;;;;;22.16;69.80;100748.11;126776;1086;102089;-76
2023/07/16 05:05:07;;;;;;;21.43;8.73;;;;;;;22.25;70.15;100747.12;126850;1086;102270;-77
2023/07/16 05:07:36;;;;;;;19.03;8.47;;;;;;;22.32;70.08;100748.89;126852;1086;101958;-77
2023/07/16 05:10:06;;;;;;;16.13;8.03;;;;;;;22.40;69.45;100751.50;126734;1086;104153;-76
2023/07/16 05:12:34;;;;;;;19.17;8.27;;;;;;;22.49;69.78;100758.56;126764;1086;101803;-77
2023/07/16 05:15:03;;;;;;;17.17;8.60;;;;;;;22.57;69.69;100752.22;126769;1086;104178;-77
2023/07/16 05:17:32;;;;;;;23.97;8.63;;;;;;;22.65;69.63;100748.59;126688;1086;104398;-76
2023/07/16 05:20:01;;;;;;;18.03;8.50;;;;;;;22.73;69.25;100746.72;126672;1086;104321;-77
2023/07/16 05:22:29;;;;;;;15.33;8.20;;;;;;;22.78;69.09;100752.89;126715;1086;104152;-78
2023/07/16 05:24:58;;;;;;;15.97;7.47;;;;;;;22.85;68.74;100759.97;126836;1086;104181;-77
2023/07/16 05:27:26;;;;;;;19.80;8.20;;;;;;;22.94;68.53;100761.66;126786;1086;102546;-76
2023/07/16 05:29:55;;;;;;;19.43;7.80;;;;;;;23.02;68.26;100758.91;126849;1086;108241;-77
2023/07/16 05:32:24;;;;;;;20.87;8.30;;;;;;;23.11;67.89;100761.51;126893;1086;102178;-77
2023/07/16 05:34:52;;;;;;;15.13;6.57;;;;;;;23.15;66.72;100758.78;126903;1086;104183;-78
2023/07/16 05:37:21;;;;;;;13.37;7.00;;;;;;;23.24;66.49;100755.08;126895;1086;101790;-76
2023/07/16 05:39:49;;;;;;;14.20;6.23;;;;;;;23.32;65.83;100761.21;126666;1086;104281;-76
2023/07/16 05:42:18;;;;;;;13.83;6.17;;;;;;;23.41;65.86;100759.34;126604;1086;102018;-77
2023/07/16 05:44:49;;;;;;;16.30;6.97;;;;;;;23.49;65.16;100754.77;126487;1086;104350;-77
2023/07/16 05:47:17;;;;;;;13.63;6.43;;;;;;;23.57;64.97;100758.21;126828;1086;102111;-77
2023/07/16 05:49:46;;;;;;;13.07;6.37;;;;;;;23.65;64.04;100758.10;126696;1086;104222;-77
2023/07/16 05:52:14;;;;;;;15.47;6.77;;;;;;;23.71;64.26;100759.82;126405;1086;102063;-76
2023/07/16 05:54:45;;;;;;;14.13;6.20;;;;;;;23.77;63.54;100760.61;126777;1086;101978;-78
2023/07/16 05:57:13;;;;;;;12.50;6.40;;;;;;;23.86;63.00;100756.95;126849;1086;104628;-77
2023/07/16 05:59:42;;;;;;;13.93;6.13;;;;;;;23.94;63.07;100763.07;126756;1086;102172;-77
2023/07/16 06:02:10;;;;;;;15.93;6.50;;;;;;;24.01;62.42;100755.81;126775;1086;104310;-77
2023/07/16 06:04:39;;;;;;;16.70;6.90;;;;;;;24.10;62.00;100758.34;126764;1086;104204;-76
2023/07/16 06:07:08;;;;;;;17.33;6.60;;;;;;;24.17;61.83;100764.52;126709;1086;104373;-77
2023/07/16 06:09:36;;;;;;;15.97;6.37;;;;;;;24.22;61.83;100766.19;126705;1086;104209;-77
2023/07/16 06:12:06;;;;;;;17.13;6.87;;;;;;;24.31;61.15;100770.52;126764;1085;104156;-77
2023/07/16 06:14:34;;;;;;;16.83;6.57;;;;;;;24.36;60.93;100757.91;126774;1086;104231;-77
2023/07/16 06:17:03;;;;;;;11.77;5.70;;;;;;;24.45;60.49;100762.25;126774;1086;102532;-77
2023/07/16 06:19:32;;;;;;;13.13;6.37;;;;;;;24.53;60.25;100772.84;126785;1086;104072;-77
2023/07/16 06:22:00;;;;;;;18.13;6.80;;;;;;;24.58;59.57;100763.81;126777;1086;104225;-77
2023/07/16 06:24:29;;;;;;;13.20;6.80;;;;;;;24.65;59.31;100771.75;126717;1086;104303;-77
2023/07/16 06:26:57;;;;;;;13.70;6.50;;;;;;;24.69;58.86;100768.98;126751;1086;104178;-77
2023/07/16 06:29:26;;;;;;;17.70;6.37;;;;;;;24.78;58.64;100775.98;126729;1086;101883;-77
2023/07/16 06:31:58;;;;;;;12.23;5.87;;;;;;;24.87;58.19;100769.54;126484;1086;104167;-76
2023/07/16 06:34:27;;;;;;;18.33;6.20;;;;;;;24.96;57.97;100766.67;126785;1085;104207;-77
2023/07/16 06:36:55;;;;;;;15.37;6.37;;;;;;;25.03;57.43;100762.09;126694;1085;104181;-77
2023/07/16 06:39:24;;;;;;;17.10;6.70;;;;;;;25.12;56.87;100767.28;126795;1086;104216;-77
2023/07/16 06:41:53;;;;;;;14.37;6.50;;;;;;;25.18;57.12;100766.25;126743;1086;101971;-77
2023/07/16 06:44:24;;;;;;;13.47;5.83;;;;;;;25.28;56.12;100763.38;126471;1086;104322;-77
2023/07/16 06:46:52;;;;;;;14.83;6.37;;;;;;;25.41;56.36;100765.80;126689;1086;104177;-77
2023/07/16 06:49:22;;;;;;;15.57;5.97;;;;;;;25.50;55.90;100762.92;126540;1086;104358;-78
2023/07/16 06:51:50;;;;;;;14.70;6.30;;;;;;;25.60;56.12;100761.81;126913;1086;104290;-78
2023/07/16 06:54:19;;;;;;;16.57;6.20;;;;;;;25.70;55.58;100765.16;126846;1085;104188;-78
2023/07/16 06:56:47;;;;;;;11.73;5.93;;;;;;;25.82;55.44;100766.66;126875;1086;104616;-78
2023/07/16 06:59:19;;;;;;;13.27;6.50;;;;;;;25.95;54.68;100761.91;126945;1086;101968;-78
2023/07/16 07:01:47;;;;;;;13.80;6.33;;;;;;;26.07;54.59;100763.43;126818;1086;102329;-77
2023/07/16 07:04:16;;;;;;;18.97;6.00;;;;;;;26.18;53.98;100764.95;126833;1085;103396;-78
2023/07/16 07:06:44;;;;;;;13.67;6.30;;;;;;;26.35;53.58;100767.22;126911;1086;102370;-78
2023/07/16 07:09:13;;;;;;;14.50;6.20;;;;;;;26.51;53.59;100764.12;126672;1085;104184;-78
2023/07/16 07:11:41;;;;;;;12.17;5.77;;;;;;;26.63;52.84;100762.90;126833;1086;104161;-79
2023/07/16 07:14:10;;;;;;;11.17;5.70;;;;;;;26.76;52.65;100763.51;126914;1085;102171;-78
2023/07/16 07:16:39;;;;;;;10.53;5.40;;;;;;;26.95;51.63;100763.88;126903;1086;104219;-78
2023/07/16 07:19:08;;;;;;;12.50;5.37;;;;;;;27.09;51.44;100765.23;126898;1086;102286;-78
2023/07/16 07:21:36;;;;;;;10.47;5.03;;;;;;;27.27;50.90;100768.34;126764;1086;102478;-77
2023/07/16 07:24:05;;;;;;;9.30;5.17;;;;;;;27.39;49.56;100772.50;126662;1085;104159;-76
2023/07/16 07:26:34;;;;;;;10.33;5.30;;;;;;;27.53;50.38;100772.08;126739;1086;101973;-77
2023/07/16 07:29:03;;;;;;;10.80;5.30;;;;;;;27.67;49.60;100766.27;126799;1086;101829;-77
2023/07/16 07:31:31;;;;;;;11.30;4.57;;;;;;;27.79;49.59;100773.97;126692;1086;104294;-76
2023/07/16 07:34:00;;;;;;;10.93;4.57;;;;;;;27.94;47.54;100772.58;126583;1086;104264;-75
2023/07/16 07:36:29;;;;;;;10.03;5.03;;;;;;;28.08;47.15;100772.17;126847;1086;101912;-79
2023/07/16 07:38:57;;;;;;;7.40;4.30;;;;;;;28.25;47.13;100780.61;126863;1086;102175;-79
2023/07/16 07:41:26;;;;;;;6.33;4.40;;;;;;;28.31;47.06;100769.61;126880;1086;104267;-79
2023/07/16 07:43:54;;;;;;;8.77;4.40;;;;;;;28.50;46.51;100775.26;126720;1086;104185;-76
2023/07/16 07:46:23;;;;;;;8.70;4.60;;;;;;;28.73;45.62;100772.71;126616;1086;101938;-77
2023/07/16 07:48:51;;;;;;;9.20;3.97;;;;;;;28.86;44.34;100760.55;126560;1085;104178;-76
2023/07/16 07:51:20;;;;;;;9.73;4.40;;;;;;;29.11;44.51;100756.91;126745;1086;104207;-77
2023/07/16 07:53:49;;;;;;;7.53;4.13;;;;;;;29.26;43.38;100759.07;126689;1086;101912;-77
2023/07/16 07:56:17;;;;;;;8.80;4.30;;;;;;;29.42;43.38;100753.08;126815;1085;104303;-78
2023/07/16 07:58:47;;;;;;;11.13;4.37;;;;;;;29.61;42.76;100751.42;126840;1086;104236;-78
2023/07/16 08:01:15;;;;;;;7.97;4.83;;;;;;;29.76;42.71;100745.41;126695;1085;104228;-76
2023/07/16 08:03:44;;;;;;;11.50;4.87;;;;;;;29.90;42.24;100746.68;126678;1086;101813;-77
2023/07/16 08:06:12;;;;;;;11.43;4.77;;;;;;;30.05;42.00;100746.05;126875;1086;104146;-76
2023/07/16 08:08:41;;;;;;;10.83;4.97;;;;;;;30.04;41.42;100746.98;126720;1086;102012;-77
2023/07/16 08:11:10;;;;;;;10.77;4.27;;;;;;;30.15;41.45;100751.95;126599;1086;104313;-76
2023/07/16 08:13:38;;;;;;;11.90;4.73;;;;;;;30.22;40.43;100750.76;126592;1086;102393;-76
2023/07/16 08:16:07;;;;;;;11.23;4.57;;;;;;;30.38;40.22;100750.11;126522;1086;104225;-77
2023/07/16 08:18:35;;;;;;;19.40;5.07;;;;;;;30.52;39.56;100749.55;126564;1086;101886;-76
2023/07/16 08:21:04;;;;;;;17.70;5.00;;;;;;;30.62;39.65;100750.88;126584;1086;104149;-75
2023/07/16 08:23:33;;;;;;;15.17;4.87;;;;;;;30.70;39.91;100732.48;126510;1086;107014;-76
2023/07/16 08:26:01;;;;;;;7.60;4.90;;;;;;;30.79;38.46;100748.33;126510;1086;104228;-76
2023/07/16 08:28:30;;;;;;;11.60;4.57;;;;;;;30.91;38.71;100746.00;126439;1086;104228;-75
2023/07/16 08:30:58;;;;;;;8.73;4.57;;;;;;;31.01;38.33;100733.84;126515;1086;101877;-76
2023/07/16 08:33:27;;;;;;;9.47;4.80;;;;;;;31.13;37.76;100738.67;126765;1086;104165;-79
2023/07/16 08:35:55;;;;;;;10.40;4.93;;;;;;;31.26;37.38;100743.52;126813;1086;102305;-78
2023/07/16 08:38:24;;;;;;;10.80;4.50;;;;;;;31.41;37.72;100745.50;126824;1086;104175;-77
2023/07/16 08:40:52;;;;;;;7.10;4.37;;;;;;;31.56;36.92;100737.64;126699;1085;104242;-76
2023/07/16 08:43:22;;;;;;;9.90;4.43;;;;;;;31.57;36.75;100740.28;126527;1086;104603;-75
2023/07/16 08:45:51;;;;;;;11.77;4.60;;;;;;;31.56;36.92;100743.07;126500;1086;104158;-74
2023/07/16 08:48:19;;;;;;;12.27;4.43;;;;;;;31.50;36.13;100739.64;126625;1086;101938;-76
2023/07/16 08:50:49;;;;;;;8.00;4.37;;;;;;;31.49;36.16;100735.20;126879;1086;102018;-75
2023/07/16 08:53:19;;;;;;;6.53;4.47;;;;;;;31.42;35.86;100733.72;126590;1086;104235;-75
2023/07/16 08:55:47;;;;;;;10.13;4.63;;;;;;;31.60;35.65;100733.81;126725;1084;104043;-76
2023/07/16 08:58:16;;;;;;;8.30;4.73;;;;;;;31.72;35.79;100741.35;126850;1086;101906;-75
2023/07/16 09:00:46;;;;;;;9.00;4.30;;;;;;;31.71;35.42;100743.20;126426;1086;104332;-76
2023/07/16 09:03:16;;;;;;;7.67;4.63;;;;;;;31.82;35.11;100741.77;126394;1086;104171;-76
2023/07/16 09:05:45;;;;;;;9.97;5.00;;;;;;;31.84;34.98;100738.04;126472;1086;101957;-76
2023/07/16 09:08:14;;;;;;;6.60;4.43;;;;;;;31.86;34.62;100740.67;126486;1085;104216;-77
2023/07/16 09:10:44;;;;;;;7.23;4.40;;;;;;;31.98;34.22;100729.21;126567;1086;104194;-77
2023/07/16 09:13:12;;;;;;;8.10;4.60;;;;;;;32.08;34.00;100735.95;126477;1086;104225;-76
2023/07/16 09:15:44;;;;;;;9.57;4.80;;;;;;;32.16;34.01;100740.12;126484;1086;104199;-76
2023/07/16 09:18:19;;;;;;;12.43;4.50;;;;;;;32.25;33.76;100728.80;126540;1086;104255;-77
2023/07/16 09:20:48;;;;;;;6.90;4.57;;;;;;;32.34;33.48;100728.31;126596;1086;101797;-76
2023/07/16 09:23:18;;;;;;;9.83;4.53;;;;;;;32.29;33.40;100722.26;126566;1086;102092;-76
2023/07/16 09:25:47;;;;;;;11.80;5.07;;;;;;;32.33;32.86;100717.53;126484;1086;101947;-77
2023/07/16 09:28:18;;;;;;;11.77;4.73;;;;;;;32.50;32.80;100724.80;126520;1086;104184;-76
2023/07/16 09:30:47;;;;;;;9.63;4.57;;;;;;;32.63;32.70;100727.74;126090;1086;104270;-77
2023/07/16 09:33:17;;;;;;;9.70;4.50;;;;;;;32.63;32.64;100719.59;126627;1086;104188;-78
2023/07/16 09:35:49;;;;;;;9.93;4.80;;;;;;;32.59;32.25;100722.47;126509;1085;101801;-75
2023/07/16 09:38:18;;;;;;;11.40;5.00;;;;;;;32.59;32.38;100724.32;126461;1086;104370;-76
2023/07/16 09:40:47;;;;;;;11.13;4.70;;;;;;;32.55;31.55;100718.19;126519;1086;102062;-77
2023/07/16 09:43:15;;;;;;;8.37;4.73;;;;;;;32.70;31.64;100719.22;126466;1086;104139;-77
2023/07/16 09:45:44;;;;;;;9.53;4.63;;;;;;;32.76;31.31;100720.74;126479;1086;104714;-76
2023/07/16 09:48:14;;;;;;;11.07;5.10;;;;;;;32.83;31.22;100716.71;126521;1086;101858;-75
2023/07/16 09:50:49;;;;;;;12.17;5.33;;;;;;;32.85;31.51;100714.81;126446;1086;104155;-76
2023/07/16 09:53:20;;;;;;;9.40;4.67;;;;;;;32.75;31.33;100706.26;126537;1086;104228;-75
2023/07/16 09:55:49;;;;;;;9.47;4.40;;;;;;;32.54;31.16;100710.11;126499;1086;104618;-76
2023/07/16 09:58:22;;;;;;;8.33;4.60;;;;;;;32.41;31.03;100707.14;126539;1086;102179;-77
2023/07/16 10:00:50;;;;;;;;;;;;;;;32.42;31.58;100700.77;126563;1085;104175;-75
2023/07/16 10:03:18;;;;;;;10.97;4.90;;;;;;;32.45;31.16;100706.03;126492;1086;105020;-76
2023/07/16 10:05:47;;;;;;;11.55;4.90;;;;;;;32.32;30.86;100696.77;126408;1086;104753;-76
2023/07/16 10:08:20;;;;;;;8.27;5.00;;;;;;;32.33;31.00;100693.10;126356;1086;104248;-76
2023/07/16 10:10:53;;;;;;;10.18;4.85;;;;;;;32.33;30.90;100690.39;126436;1086;104199;-76
2023/07/16 10:13:24;;;;;;;9.47;4.80;;;;;;;32.28;30.84;100692.47;126530;1086;102077;-77
2023/07/16 10:15:54;;;;;;;9.80;5.00;;;;;;;32.31;30.74;100704.04;126575;1086;104153;-77
2023/07/16 10:18:30;;;;;;;9.20;4.83;;;;;;;32.35;30.93;100693.89;126504;1086;104211;-78
2023/07/16 10:21:05;;;;;;;8.30;4.70;;;;;;;32.33;30.83;100695.81;126512;1086;104178;-77
2023/07/16 10:23:41;;;;;;;12.53;4.90;;;;;;;32.36;30.70;100692.94;126407;1086;102382;-77
2023/07/16 10:26:13;;;;;;;6.73;4.60;;;;;;;32.41;30.74;100689.04;126435;1086;104185;-77
2023/07/16 10:28:45;;;;;;;9.47;4.70;;;;;;;32.56;30.59;100681.89;126458;1086;101981;-77
2023/07/16 10:31:20;;;;;;;10.47;4.60;;;;;;;32.70;30.37;100683.03;126526;1086;104213;-76
2023/07/16 10:34:00;;;;;;;9.60;4.80;;;;;;;32.86;30.06;100675.78;126445;1086;104165;-78
2023/07/16 10:36:29;;;;;;;14.97;5.60;;;;;;;33.08;30.22;100674.60;126369;1086;104184;-77
2023/07/16 10:39:04;;;;;;;9.23;4.80;;;;;;;33.05;30.01;100672.05;126567;1086;102201;-77
2023/07/16 10:41:33;;;;;;;8.55;4.65;;;;;;;32.90;29.91;100668.36;126587;1086;104191;-79
2023/07/16 10:44:02;;;;;;;8.77;4.60;;;;;;;32.84;30.07;100672.28;126568;1086;101889;-78
2023/07/16 10:46:32;;;;;;;8.47;4.63;;;;;;;32.88;30.23;100671.17;126518;1086;104293;-77
2023/07/16 10:49:01;;;;;;;8.30;5.13;;;;;;;32.95;30.27;100669.84;126521;1085;104217;-77
2023/07/16 10:51:29;;;;;;;7.93;4.60;;;;;;;33.06;30.14;100665.66;126110;1086;104252;-77
2023/07/16 10:53:58;;;;;;;9.20;4.90;;;;;;;33.19;30.00;100666.74;126512;1086;104232;-76
2023/07/16 10:56:27;;;;;;;8.47;4.87;;;;;;;33.26;29.50;100667.30;126495;1086;104152;-78
2023/07/16 10:58:55;;;;;;;9.63;5.10;;;;;;;33.31;29.49;100663.33;126632;1086;104253;-79
2023/07/16 11:01:25;;;;;;;8.87;4.60;;;;;;;33.16;29.32;100661.48;126668;1086;104162;-80
2023/07/16 11:03:53;;;;;;;7.50;4.65;;;;;;;33.19;29.79;100666.74;126392;1086;101906;-79
2023/07/16 11:06:22;;;;;;;10.53;5.10;;;;;;;33.26;29.51;100664.58;126584;1086;104353;-78
2023/07/16 11:08:51;;;;;;;11.60;4.97;;;;;;;33.40;29.56;100664.66;126515;1086;104226;-78
2023/07/16 11:11:30;;;;;;;10.13;4.93;;;;;;;33.49;29.22;100668.70;126543;1086;104155;-77
2023/07/16 11:13:58;;;;;;;13.20;4.70;;;;;;;33.33;29.15;100660.52;126577;1085;104158;-77